createdAt,value
2023-10-16T00:01:40.541Z,100.00
2023-10-16T00:04:08.099Z,100.00
2023-10-16T00:06:36.232Z,100.00
2023-10-16T00:09:16.295Z,100.00
2023-10-16T00:11:44.114Z,100.00
2023-10-16T00:14:25.191Z,100.00
2023-10-16T00:16:53.128Z,100.00
2023-10-16T00:19:20.240Z,100.00
2023-10-16T00:21:47.716Z,100.00
2023-10-16T00:24:15.210Z,100.00
2023-10-16T00:26:50.494Z,100.00
2023-10-16T00:29:18.790Z,100.00
2023-10-16T00:31:52.751Z,100.00
2023-10-16T00:34:23.805Z,100.00
2023-10-16T00:36:56.075Z,100.00
2023-10-16T00:39:27.233Z,100.00
2023-10-16T00:41:54.409Z,100.00
2023-10-16T00:44:23.824Z,100.00
2023-10-16T00:46:54.240Z,100.00
2023-10-16T00:49:24.930Z,100.00
2023-10-16T00:51:52.301Z,100.00
2023-10-16T00:54:31.233Z,100.00
2023-10-16T00:56:59.525Z,100.00
2023-10-16T00:59:29.754Z,100.00
2023-10-16T01:02:08.143Z,100.00
2023-10-16T01:04:51.776Z,100.00
2023-10-16T01:07:20.727Z,100.00
2023-10-16T01:09:53.906Z,100.00
2023-10-16T01:12:23.475Z,100.00
2023-10-16T01:14:50.871Z,100.00
2023-10-16T01:17:30.731Z,100.00
2023-10-16T01:19:58.293Z,100.00
2023-10-16T01:22:30.976Z,100.00
2023-10-16T01:25:01.315Z,100.00
2023-10-16T01:27:32.112Z,100.00
2023-10-16T01:30:03.134Z,100.00
2023-10-16T01:32:35.056Z,100.00
2023-10-16T01:35:02.823Z,100.00
2023-10-16T01:37:33.643Z,100.00
2023-10-16T01:40:17.789Z,100.00
2023-10-16T01:42:46.965Z,100.00
2023-10-16T01:45:16.900Z,100.00
2023-10-16T01:47:44.270Z,100.00
2023-10-16T01:50:22.992Z,100.00
2023-10-16T01:52:51.333Z,100.00
2023-10-16T01:55:20.717Z,100.00
2023-10-16T01:57:49.409Z,100.00
2023-10-16T02:00:25.871Z,100.00
2023-10-16T02:02:53.680Z,100.00
2023-10-16T02:05:21.060Z,100.00
2023-10-16T02:07:48.895Z,100.00
2023-10-16T02:10:16.707Z,100.00
2023-10-16T02:12:43.852Z,100.00
2023-10-16T02:15:11.918Z,100.00
2023-10-16T02:17:42.236Z,100.00
2023-10-16T02:20:13.069Z,100.00
2023-10-16T02:22:43.277Z,100.00
2023-10-16T02:25:12.554Z,100.00
2023-10-16T02:27:43.022Z,100.00
2023-10-16T02:30:26.527Z,100.00
2023-10-16T02:33:01.063Z,100.00
2023-10-16T02:35:28.955Z,100.00
2023-10-16T02:37:59.131Z,100.00
2023-10-16T02:40:26.713Z,100.00
2023-10-16T02:42:57.919Z,100.00
2023-10-16T02:45:26.876Z,100.00
2023-10-16T02:47:54.726Z,100.00
2023-10-16T02:50:22.089Z,100.00
2023-10-16T02:52:49.830Z,100.00
2023-10-16T02:55:17.185Z,100.00
2023-10-16T02:57:44.379Z,100.00
2023-10-16T03:00:36.538Z,100.00
2023-10-16T03:03:07.168Z,100.00
2023-10-16T03:05:34.450Z,100.00
2023-10-16T03:08:02.120Z,100.00
2023-10-16T03:10:32.503Z,100.00
2023-10-16T03:13:07.144Z,100.00
2023-10-16T03:15:47.135Z,100.00
2023-10-16T03:18:18.894Z,100.00
2023-10-16T03:20:47.083Z,100.00
2023-10-16T03:23:15.609Z,100.00
2023-10-16T03:25:43.023Z,100.00
2023-10-16T03:28:10.766Z,100.00
2023-10-16T03:30:41.312Z,100.00
2023-10-16T03:33:09.181Z,100.00
2023-10-16T03:35:51.420Z,100.00
2023-10-16T03:38:35.590Z,100.00
2023-10-16T03:41:04.890Z,100.00
2023-10-16T03:43:31.910Z,100.00
2023-10-16T03:45:59.750Z,100.00
2023-10-16T03:48:27.277Z,100.00
2023-10-16T03:50:57.557Z,100.00
2023-10-16T03:53:25.436Z,100.00
2023-10-16T03:55:52.879Z,100.00
2023-10-16T03:58:19.823Z,100.00
2023-10-16T04:00:58.303Z,100.00
2023-10-16T04:03:28.317Z,100.00
2023-10-16T04:05:55.789Z,100.00
2023-10-16T04:08:23.407Z,100.00
2023-10-16T04:10:51.248Z,100.00
2023-10-16T04:13:20.700Z,100.00
2023-10-16T04:16:06.149Z,100.00
2023-10-16T04:18:35.836Z,100.00
2023-10-16T04:21:16.104Z,100.00
2023-10-16T04:23:48.861Z,100.00
2023-10-16T04:26:28.928Z,100.00
2023-10-16T04:29:06.369Z,100.00
2023-10-16T04:31:46.917Z,100.00
2023-10-16T04:34:28.621Z,100.00
2023-10-16T04:37:15.879Z,100.00
2023-10-16T04:40:11.148Z,100.00
2023-10-16T04:43:10.074Z,100.00
2023-10-16T04:45:40.549Z,100.00
2023-10-16T04:48:08.662Z,100.00
2023-10-16T04:53:07.630Z,100.00
2023-10-16T04:55:47.383Z,100.00
2023-10-16T04:58:20.081Z,100.00
2023-10-16T05:01:18.732Z,100.00
2023-10-16T05:04:05.865Z,100.00
2023-10-16T05:06:33.145Z,100.00
2023-10-16T05:09:18.798Z,100.00
2023-10-16T05:12:06.964Z,100.00
2023-10-16T05:14:43.542Z,100.00
2023-10-16T05:17:27.336Z,100.00
2023-10-16T05:19:54.931Z,100.00
2023-10-16T05:22:37.266Z,100.00
2023-10-16T05:25:23.833Z,100.00
2023-10-16T05:28:10.254Z,100.00
2023-10-16T05:30:55.894Z,100.00
2023-10-16T05:33:43.152Z,100.00
2023-10-16T05:36:29.121Z,100.00
2023-10-16T05:39:14.614Z,100.00
2023-10-16T05:42:01.624Z,100.00
2023-10-16T05:44:47.455Z,100.00
2023-10-16T05:47:33.020Z,99.83
2023-10-16T05:50:19.347Z,99.37
2023-10-16T05:53:05.014Z,99.43
2023-10-16T05:55:54.229Z,99.72
2023-10-16T05:58:39.929Z,100.00
2023-10-16T06:01:26.840Z,100.00
2023-10-16T06:04:12.715Z,100.00
2023-10-16T06:07:00.760Z,100.00
2023-10-16T06:09:53.259Z,100.00
2023-10-16T06:12:39.627Z,100.00
2023-10-16T06:15:09.098Z,100.00
2023-10-16T06:17:39.479Z,100.00
2023-10-16T06:20:10.816Z,100.00
2023-10-16T06:22:38.132Z,100.00
2023-10-16T06:25:11.525Z,100.00
2023-10-16T06:27:43.049Z,100.00
2023-10-16T06:30:20.050Z,100.00
2023-10-16T06:32:50.840Z,100.00
2023-10-16T06:35:18.320Z,100.00
2023-10-16T06:37:53.234Z,100.00
2023-10-16T06:40:26.347Z,100.00
2023-10-16T06:43:12.528Z,100.00
2023-10-16T06:46:04.484Z,100.00
2023-10-16T06:48:42.002Z,100.00
2023-10-16T06:51:16.913Z,100.00
2023-10-16T06:53:47.235Z,100.00
2023-10-16T06:56:28.785Z,100.00
2023-10-16T06:58:58.057Z,100.00
2023-10-16T07:01:27.321Z,100.00
2023-10-16T07:03:58.447Z,100.00
2023-10-16T07:06:33.723Z,100.00
2023-10-16T07:09:07.417Z,100.00
2023-10-16T07:11:35.047Z,100.00
2023-10-16T07:14:02.184Z,100.00
2023-10-16T07:16:30.568Z,100.00
2023-10-16T07:18:59.081Z,100.00
2023-10-16T07:21:26.618Z,100.00
2023-10-16T07:23:56.523Z,100.00
2023-10-16T07:26:26.210Z,100.00
2023-10-16T07:28:53.663Z,100.00
2023-10-16T07:31:21.154Z,100.00
2023-10-16T07:34:01.390Z,100.00
2023-10-16T07:36:28.895Z,100.00
2023-10-16T07:38:56.023Z,100.00
2023-10-16T07:41:25.355Z,100.00
2023-10-16T07:43:58.832Z,100.00
2023-10-16T07:46:31.789Z,100.00
2023-10-16T07:49:04.502Z,100.00
2023-10-16T07:51:31.953Z,100.00
2023-10-16T07:54:01.401Z,100.00
2023-10-16T07:56:33.745Z,100.00
2023-10-16T07:59:10.396Z,100.00
2023-10-16T08:01:59.886Z,100.00
2023-10-16T08:04:27.213Z,100.00
2023-10-16T08:07:16.712Z,100.00
2023-10-16T08:09:59.106Z,100.00
2023-10-16T08:12:47.116Z,100.00
2023-10-16T08:15:23.996Z,100.00
2023-10-16T08:17:53.413Z,100.00
2023-10-16T08:20:20.976Z,100.00
2023-10-16T08:22:50.294Z,100.00
2023-10-16T08:25:32.663Z,100.00
2023-10-16T08:28:19.587Z,100.00
2023-10-16T08:30:50.214Z,100.00
2023-10-16T08:33:17.901Z,100.00
2023-10-16T08:35:46.650Z,100.00
2023-10-16T08:38:27.369Z,100.00
2023-10-16T08:41:08.599Z,100.00
2023-10-16T08:44:12.418Z,100.00
2023-10-16T08:46:46.701Z,100.00
2023-10-16T08:49:14.367Z,100.00
2023-10-16T08:51:41.757Z,100.00
2023-10-16T08:54:38.475Z,100.00
2023-10-16T08:57:11.999Z,100.00
2023-10-16T08:59:43.859Z,100.00
2023-10-16T09:02:15.496Z,100.00
2023-10-16T09:04:43.247Z,100.00
2023-10-16T09:07:13.808Z,100.00
2023-10-16T09:09:42.602Z,100.00
2023-10-16T09:12:12.751Z,100.00
2023-10-16T09:14:42.529Z,100.00
2023-10-16T09:17:09.797Z,100.00
2023-10-16T09:19:58.658Z,100.00
2023-10-16T09:22:31.935Z,100.00
2023-10-16T09:25:00.718Z,100.00
2023-10-16T09:27:37.771Z,100.00
2023-10-16T09:30:16.190Z,100.00
2023-10-16T09:32:43.970Z,100.00
2023-10-16T09:35:15.445Z,100.00
2023-10-16T09:37:48.886Z,100.00
2023-10-16T09:40:41.555Z,100.00
2023-10-16T09:43:25.390Z,100.00
2023-10-16T09:46:12.930Z,100.00
2023-10-16T09:48:41.591Z,100.00
2023-10-16T09:51:10.576Z,100.00
2023-10-16T09:53:38.185Z,100.00
2023-10-16T09:56:07.447Z,100.00
2023-10-16T09:58:37.383Z,100.00
2023-10-16T10:01:11.138Z,100.00
2023-10-16T10:03:39.952Z,100.00
2023-10-16T10:06:13.831Z,100.00
2023-10-16T10:08:59.446Z,100.00
2023-10-16T10:12:16.206Z,100.00
2023-10-16T10:15:02.523Z,100.00
2023-10-16T10:17:35.047Z,100.00
2023-10-16T10:20:10.550Z,100.00
2023-10-16T10:22:39.438Z,100.00
2023-10-16T10:25:24.200Z,100.00
2023-10-16T10:28:15.600Z,100.00
2023-10-16T10:30:47.053Z,100.00
2023-10-16T10:33:35.713Z,100.00
2023-10-16T10:36:30.316Z,100.00
2023-10-16T10:39:28.659Z,100.00
2023-10-16T10:42:05.318Z,100.00
2023-10-16T10:44:42.445Z,100.00
2023-10-16T10:47:32.378Z,100.00
2023-10-16T10:50:02.196Z,100.00
2023-10-16T10:52:34.205Z,100.00
2023-10-16T10:55:15.867Z,100.00
2023-10-16T10:57:49.137Z,100.00
2023-10-16T11:00:30.013Z,100.00
2023-10-16T11:03:03.377Z,100.00
2023-10-16T11:05:32.749Z,100.00
2023-10-16T11:08:21.333Z,100.00
2023-10-16T11:10:48.820Z,100.00
2023-10-16T11:13:19.556Z,100.00
2023-10-16T11:15:54.621Z,100.00
2023-10-16T11:18:27.862Z,100.00
2023-10-16T11:21:06.123Z,100.00
2023-10-16T11:23:41.766Z,100.00
2023-10-16T11:26:15.160Z,100.00
2023-10-16T11:28:50.443Z,100.00
2023-10-16T11:31:39.513Z,100.00
2023-10-16T11:34:26.062Z,100.00
2023-10-16T11:36:58.495Z,100.00
2023-10-16T11:39:27.644Z,100.00
2023-10-16T11:41:55.402Z,100.00
2023-10-16T11:44:27.693Z,100.00
2023-10-16T11:46:55.294Z,100.00
2023-10-16T11:49:24.454Z,100.00
2023-10-16T11:51:55.400Z,100.00
2023-10-16T11:54:27.588Z,100.00
2023-10-16T11:57:01.079Z,100.00
2023-10-16T11:59:30.190Z,100.00
2023-10-16T12:02:04.113Z,100.00
2023-10-16T12:04:35.262Z,100.00
2023-10-16T12:07:06.422Z,100.00
2023-10-16T12:09:39.493Z,100.00
2023-10-16T12:12:14.480Z,100.00
2023-10-16T12:14:43.546Z,100.00
2023-10-16T12:17:15.267Z,100.00
2023-10-16T12:19:43.077Z,100.00
2023-10-16T12:22:16.966Z,100.00
2023-10-16T12:24:45.602Z,100.00
2023-10-16T12:27:17.214Z,100.00
2023-10-16T12:29:47.507Z,100.00
2023-10-16T12:32:15.102Z,100.00
2023-10-16T12:34:43.709Z,100.00
2023-10-16T12:37:12.941Z,100.00
2023-10-16T12:40:00.825Z,100.00
2023-10-16T12:42:30.663Z,100.00
2023-10-16T12:45:00.053Z,100.00
2023-10-16T12:47:43.876Z,100.00
2023-10-16T12:50:13.169Z,100.00
2023-10-16T12:52:43.818Z,100.00
2023-10-16T12:55:13.591Z,100.00
2023-10-16T12:57:45.412Z,100.00
2023-10-16T13:00:22.543Z,100.00
2023-10-16T13:02:52.685Z,100.00
2023-10-16T13:05:26.975Z,100.00
2023-10-16T13:07:57.897Z,100.00
2023-10-16T13:10:30.091Z,100.00
2023-10-16T13:12:59.380Z,100.00
2023-10-16T13:15:31.883Z,100.00
2023-10-16T13:18:02.878Z,100.00
2023-10-16T13:20:32.180Z,100.00
2023-10-16T13:23:01.379Z,100.00
2023-10-16T13:25:48.012Z,100.00
2023-10-16T13:28:15.656Z,100.00
2023-10-16T13:30:46.142Z,100.00
2023-10-16T13:33:13.723Z,100.00
2023-10-16T13:35:42.891Z,100.00
2023-10-16T13:38:11.065Z,100.00
2023-10-16T13:40:40.168Z,100.00
2023-10-16T13:43:12.322Z,100.00
2023-10-16T13:45:41.563Z,100.00
2023-10-16T13:48:11.497Z,100.00
2023-10-16T13:50:42.252Z,100.00
2023-10-16T13:53:12.964Z,100.00
2023-10-16T13:55:41.419Z,100.00
2023-10-16T13:58:10.226Z,100.00
2023-10-16T14:00:39.410Z,100.00
2023-10-16T14:03:11.733Z,100.00
2023-10-16T14:05:52.240Z,100.00
2023-10-16T14:08:32.223Z,100.00
2023-10-16T14:11:02.054Z,100.00
2023-10-16T14:13:30.110Z,100.00
2023-10-16T14:16:18.123Z,100.00
2023-10-16T14:18:46.025Z,100.00
2023-10-16T14:21:15.431Z,100.00
2023-10-16T14:26:35.481Z,100.00
2023-10-16T14:29:05.327Z,100.00
2023-10-16T14:31:35.801Z,100.00
2023-10-16T14:34:07.190Z,100.00
2023-10-16T14:36:37.775Z,100.00
2023-10-16T14:39:06.157Z,100.00
2023-10-16T14:41:33.766Z,100.00
2023-10-16T14:44:08.450Z,100.00
2023-10-16T14:46:44.968Z,100.00
2023-10-16T14:49:13.611Z,100.00
2023-10-16T14:51:42.846Z,100.00
2023-10-16T14:54:12.476Z,100.00
2023-10-16T14:56:45.622Z,100.00
2023-10-16T14:59:36.471Z,100.00
2023-10-16T15:02:05.427Z,100.00
2023-10-16T15:04:34.379Z,100.00
2023-10-16T15:07:06.526Z,100.00
2023-10-16T15:09:35.001Z,100.00
2023-10-16T15:12:02.859Z,100.00
2023-10-16T15:14:32.175Z,100.00
2023-10-16T15:16:59.736Z,100.00
2023-10-16T15:19:30.364Z,100.00
2023-10-16T15:22:02.996Z,100.00
2023-10-16T15:24:33.440Z,100.00
2023-10-16T15:27:04.567Z,100.00
2023-10-16T15:29:32.176Z,100.00
2023-10-16T15:31:59.909Z,100.00
2023-10-16T15:34:40.279Z,100.00
2023-10-16T15:37:11.273Z,100.00
2023-10-16T15:39:40.564Z,100.00
2023-10-16T15:42:09.716Z,100.00
2023-10-16T15:44:38.332Z,100.00
2023-10-16T15:47:08.602Z,100.00
2023-10-16T15:49:37.870Z,100.00
2023-10-16T15:52:07.175Z,100.00
2023-10-16T15:54:35.865Z,100.00
2023-10-16T15:57:04.649Z,100.00
2023-10-16T15:59:33.501Z,100.00
2023-10-16T16:02:03.647Z,100.00
2023-10-16T16:04:33.895Z,100.00
2023-10-16T16:07:05.405Z,100.00
2023-10-16T16:09:34.178Z,100.00
2023-10-16T16:12:01.702Z,100.00
2023-10-16T16:14:29.651Z,100.00
2023-10-16T16:17:02.265Z,100.00
2023-10-16T16:19:30.092Z,100.00
2023-10-16T16:22:02.487Z,100.00
2023-10-16T16:24:30.244Z,100.00
2023-10-16T16:26:57.693Z,100.00
2023-10-16T16:29:26.377Z,100.00
2023-10-16T16:31:58.970Z,100.00
2023-10-16T16:34:27.640Z,100.00
2023-10-16T16:36:55.147Z,100.00
2023-10-16T16:39:22.683Z,100.00
2023-10-16T16:41:51.690Z,100.00
2023-10-16T16:44:21.335Z,100.00
2023-10-16T16:46:50.537Z,100.00
2023-10-16T16:49:18.171Z,100.00
2023-10-16T16:51:46.796Z,100.00
2023-10-16T16:54:15.349Z,100.00
2023-10-16T16:56:46.484Z,100.00
2023-10-16T16:59:18.226Z,100.00
2023-10-16T17:01:49.353Z,100.00
2023-10-16T17:04:43.464Z,100.00
2023-10-16T17:07:31.895Z,100.00
2023-10-16T17:10:02.575Z,100.00
2023-10-16T17:12:35.314Z,100.00
2023-10-16T17:15:04.420Z,100.00
2023-10-16T17:17:33.165Z,100.00
2023-10-16T17:20:01.511Z,100.00
2023-10-16T17:22:44.274Z,100.00
2023-10-16T17:25:20.785Z,100.00
2023-10-16T17:27:50.603Z,100.00
2023-10-16T17:30:19.804Z,100.00
2023-10-16T17:32:50.762Z,100.00
2023-10-16T17:35:28.793Z,100.00
2023-10-16T17:37:57.516Z,100.00
2023-10-16T17:40:26.162Z,100.00
2023-10-16T17:42:57.118Z,100.00
2023-10-16T17:45:24.882Z,100.00
2023-10-16T17:47:55.434Z,100.00
2023-10-16T17:50:25.031Z,100.00
2023-10-16T17:55:35.493Z,100.00
2023-10-16T17:58:04.775Z,100.00
2023-10-16T18:00:32.528Z,100.00
2023-10-16T18:03:00.765Z,100.00
2023-10-16T18:05:36.759Z,100.00
2023-10-16T18:08:10.577Z,100.00
2023-10-16T18:10:47.085Z,100.00
2023-10-16T18:13:14.603Z,100.00
2023-10-16T18:15:51.640Z,100.00
2023-10-16T18:18:19.830Z,100.00
2023-10-16T18:20:50.458Z,100.00
2023-10-16T18:23:19.128Z,100.00
2023-10-16T18:25:47.920Z,100.00
2023-10-16T18:28:50.152Z,100.00
2023-10-16T18:31:30.017Z,100.00
2023-10-16T18:33:57.464Z,100.00
2023-10-16T18:36:24.877Z,100.00
2023-10-16T18:38:52.328Z,100.00
2023-10-16T18:41:21.195Z,100.00
2023-10-16T18:43:51.100Z,100.00
2023-10-16T18:46:19.246Z,100.00
2023-10-16T18:48:47.058Z,100.00
2023-10-16T18:51:14.298Z,100.00
2023-10-16T18:53:46.728Z,100.00
2023-10-16T18:56:13.928Z,100.00
2023-10-16T18:58:41.461Z,100.00
2023-10-16T19:01:13.015Z,100.00
2023-10-16T19:03:40.274Z,100.00
2023-10-16T19:06:07.665Z,100.00
2023-10-16T19:08:36.148Z,100.00
2023-10-16T19:11:03.748Z,100.00
2023-10-16T19:13:31.962Z,100.00
2023-10-16T19:15:59.597Z,100.00
2023-10-16T19:18:30.835Z,100.00
2023-10-16T19:21:02.266Z,100.00
2023-10-16T19:23:32.943Z,100.00
2023-10-16T19:26:17.847Z,100.00
2023-10-16T19:28:45.930Z,100.00
2023-10-16T19:31:16.213Z,100.00
2023-10-16T19:33:44.611Z,100.00
2023-10-16T19:36:21.807Z,100.00
2023-10-16T19:38:50.994Z,100.00
2023-10-16T19:41:22.801Z,100.00
2023-10-16T19:43:54.301Z,100.00
2023-10-16T19:46:23.964Z,100.00
2023-10-16T19:48:51.275Z,100.00
2023-10-16T19:51:19.951Z,100.00
2023-10-16T19:53:48.671Z,100.00
2023-10-16T19:56:18.921Z,100.00
2023-10-16T19:58:49.626Z,100.00
2023-10-16T20:01:16.690Z,100.00
2023-10-16T20:03:50.637Z,100.00
2023-10-16T20:06:20.267Z,100.00
2023-10-16T20:08:47.892Z,100.00
2023-10-16T20:11:15.145Z,100.00
2023-10-16T20:13:47.871Z,100.00
2023-10-16T20:16:15.184Z,100.00
2023-10-16T20:18:43.523Z,100.00
2023-10-16T20:21:19.319Z,100.00
2023-10-16T20:23:48.678Z,100.00
2023-10-16T20:26:17.995Z,100.00
2023-10-16T20:28:51.458Z,100.00
2023-10-16T20:31:19.920Z,100.00
2023-10-16T20:33:49.985Z,100.00
2023-10-16T20:36:22.267Z,100.00
2023-10-16T20:38:55.993Z,100.00
2023-10-16T20:41:25.447Z,100.00
2023-10-16T20:43:58.773Z,100.00
2023-10-16T20:46:26.106Z,100.00
2023-10-16T20:48:54.179Z,100.00
2023-10-16T20:51:21.904Z,100.00
2023-10-16T20:53:48.963Z,100.00
2023-10-16T20:56:16.084Z,100.00
2023-10-16T20:58:43.173Z,99.50
2023-10-16T21:01:16.576Z,99.17
2023-10-16T21:03:43.773Z,99.47
2023-10-16T21:06:14.336Z,99.00
2023-10-16T21:08:41.489Z,98.61
2023-10-16T21:11:09.562Z,98.25
2023-10-16T21:13:37.801Z,98.09
2023-10-16T21:16:05.668Z,97.92
2023-10-16T21:18:32.753Z,97.95
2023-10-16T21:21:02.510Z,97.79
2023-10-16T21:23:29.540Z,97.43
2023-10-16T21:25:56.531Z,97.08
2023-10-16T21:28:24.198Z,97.18
2023-10-16T21:30:58.082Z,97.50
2023-10-16T21:33:25.699Z,97.28
2023-10-16T21:35:52.874Z,97.51
2023-10-16T21:38:22.815Z,97.77
2023-10-16T21:40:49.796Z,97.81
2023-10-16T21:43:16.829Z,97.55
2023-10-16T21:45:43.980Z,97.95
2023-10-16T21:48:11.292Z,98.32
2023-10-16T21:50:38.363Z,97.56
2023-10-16T21:53:06.730Z,97.65
2023-10-16T21:55:33.721Z,97.56
2023-10-16T21:58:00.765Z,97.69
2023-10-16T22:00:51.550Z,97.62
2023-10-16T22:03:18.743Z,97.46
2023-10-16T22:05:46.501Z,97.90
2023-10-16T22:08:16.548Z,98.24
2023-10-16T22:10:44.364Z,98.11
2023-10-16T22:13:12.157Z,97.53
2023-10-16T22:15:42.122Z,97.24
2023-10-16T22:18:09.370Z,97.40
2023-10-16T22:20:37.117Z,97.14
2023-10-16T22:23:05.874Z,96.58
2023-10-16T22:25:34.688Z,96.33
2023-10-16T22:28:08.513Z,96.55
2023-10-16T22:30:36.372Z,96.39
2023-10-16T22:33:03.571Z,96.46
2023-10-16T22:35:30.688Z,96.25
2023-10-16T22:37:57.735Z,96.08
2023-10-16T22:40:26.289Z,95.84
2023-10-16T22:42:54.951Z,96.38
2023-10-16T22:45:23.772Z,96.83
2023-10-16T22:47:51.860Z,97.07
2023-10-16T22:50:19.071Z,97.36
2023-10-16T22:52:46.201Z,97.40
2023-10-16T22:55:13.594Z,96.87
2023-10-16T22:57:41.864Z,96.32
2023-10-16T23:00:16.738Z,95.92
2023-10-16T23:02:44.199Z,96.13
2023-10-16T23:05:15.352Z,96.15
2023-10-16T23:07:48.004Z,96.16
2023-10-16T23:10:18.379Z,95.99
2023-10-16T23:12:47.246Z,95.73
2023-10-16T23:15:20.138Z,95.86
2023-10-16T23:17:51.914Z,95.83
2023-10-16T23:20:25.721Z,96.17
2023-10-16T23:22:54.078Z,96.08
2023-10-16T23:25:24.049Z,96.45
2023-10-16T23:27:57.451Z,96.76
2023-10-16T23:30:26.728Z,96.86
2023-10-16T23:32:54.245Z,96.89
2023-10-16T23:35:23.057Z,96.88
2023-10-16T23:37:50.509Z,97.10
2023-10-16T23:40:35.834Z,97.18
2023-10-16T23:43:12.036Z,97.01
2023-10-16T23:45:41.554Z,97.19
2023-10-16T23:48:19.842Z,97.41
2023-10-16T23:50:51.809Z,97.24
2023-10-16T23:53:32.423Z,97.48
2023-10-16T23:56:18.687Z,98.00
2023-10-16T23:58:51.638Z,98.20
